SDM601 UIII-UIAA
Flight info
| Callsign | SDM601 |
|---|---|
| Flight time | N/A |
| Altitude | 35000 |
| Route | KA4C KA A91 MAKID MAKID1L |
| Aircraft | A320/M-SDE3FGHIRWY/LB1 |
Departure
| Time | 2026-05-09 13:59 |
|---|---|
| Airport | Irkutsk International Airport (UIII) |
Arrival
| Time | N/A |
|---|---|
| Airport | Chita-Kadala International Airport (UIAA) |
| Time | Latitude | Longitude | Altitude | Speed | Heading |
|---|---|---|---|---|---|
| 2026-05-09 13:41 | 52.27097 | 104.36886 | 1558 ft | 0 kts | 199° |
| 2026-05-09 13:55 | 52.27067 | 104.36873 | 1585 ft | 5 kts | 182° |
| 2026-05-09 13:55 | 52.27037 | 104.36923 | 1585 ft | 12 kts | 116° |
| 2026-05-09 13:56 | 52.27006 | 104.37060 | 1585 ft | 13 kts | 110° |
| 2026-05-09 13:56 | 52.26995 | 104.37197 | 1585 ft | 12 kts | 75° |
| 2026-05-09 13:56 | 52.27039 | 104.37309 | 1585 ft | 12 kts | 52° |
| 2026-05-09 13:56 | 52.27088 | 104.37417 | 1586 ft | 12 kts | 54° |
| 2026-05-09 13:57 | 52.27136 | 104.37524 | 1587 ft | 11 kts | 54° |
| 2026-05-09 13:57 | 52.27179 | 104.37625 | 1588 ft | 10 kts | 59° |
| 2026-05-09 13:57 | 52.27186 | 104.37697 | 1589 ft | 9 kts | 97° |
| 2026-05-09 13:57 | 52.27180 | 104.37720 | 1589 ft | 2 kts | 112° |
| 2026-05-09 13:58 | 52.27103 | 104.38024 | 1595 ft | 65 kts | 113° |
| 2026-05-09 13:58 | 52.26810 | 104.39115 | 1632 ft | 127 kts | 113° |
| 2026-05-09 13:58 | 52.26409 | 104.40653 | 1717 ft | 166 kts | 111° |
| 2026-05-09 13:58 | 52.25994 | 104.42301 | 2243 ft | 169 kts | 111° |
| 2026-05-09 13:59 | 52.25530 | 104.44097 | 2808 ft | 176 kts | 110° |
| 2026-05-09 13:59 | 52.25280 | 104.46036 | 3335 ft | 178 kts | 75° |
| 2026-05-09 13:59 | 52.25950 | 104.47702 | 3682 ft | 187 kts | 32° |
| 2026-05-09 13:59 | 52.27154 | 104.48782 | 3917 ft | 209 kts | 27° |
| 2026-05-09 14:00 | 52.28491 | 104.50045 | 4170 ft | 235 kts | 30° |
| 2026-05-09 14:00 | 52.29468 | 104.51014 | 4414 ft | 251 kts | 30° |
| 2026-05-09 14:00 | 52.31518 | 104.53099 | 5207 ft | 269 kts | 31° |
| 2026-05-09 14:00 | 52.33113 | 104.54746 | 6008 ft | 274 kts | 30° |
| 2026-05-09 14:01 | 52.34738 | 104.56432 | 6817 ft | 278 kts | 30° |
| 2026-05-09 14:01 | 52.36370 | 104.58134 | 7698 ft | 278 kts | 28° |
| 2026-05-09 14:01 | 52.38009 | 104.59847 | 8542 ft | 280 kts | 28° |
| 2026-05-09 14:01 | 52.39658 | 104.61569 | 9380 ft | 283 kts | 28° |
| 2026-05-09 14:02 | 52.41330 | 104.63316 | 10149 ft | 287 kts | 28° |
| 2026-05-09 14:02 | 52.43072 | 104.65125 | 10472 ft | 308 kts | 28° |
| 2026-05-09 14:02 | 52.44950 | 104.67072 | 10732 ft | 329 kts | 28° |
| 2026-05-09 14:02 | 52.46905 | 104.69111 | 11330 ft | 336 kts | 28° |
| 2026-05-09 14:03 | 52.48889 | 104.71190 | 12040 ft | 340 kts | 28° |
| 2026-05-09 14:03 | 52.50887 | 104.73292 | 12757 ft | 344 kts | 29° |
| 2026-05-09 14:03 | 52.52922 | 104.75438 | 13114 ft | 354 kts | 32° |
| 2026-05-09 14:03 | 52.55032 | 104.77670 | 13360 ft | 366 kts | 32° |
| 2026-05-09 14:04 | 52.57183 | 104.79946 | 13795 ft | 370 kts | 33° |
| 2026-05-09 14:04 | 52.59348 | 104.82238 | 14552 ft | 366 kts | 29° |
| 2026-05-09 14:04 | 52.61469 | 104.84485 | 15493 ft | 361 kts | 29° |
| 2026-05-09 14:04 | 52.63581 | 104.86717 | 16185 ft | 362 kts | 29° |
| 2026-05-09 14:05 | 52.65678 | 104.88931 | 16804 ft | 364 kts | 29° |
| 2026-05-09 14:05 | 52.67822 | 104.91195 | 17418 ft | 367 kts | 29° |
| 2026-05-09 14:05 | 52.69981 | 104.93479 | 18024 ft | 371 kts | 29° |
| 2026-05-09 14:05 | 52.72159 | 104.95788 | 18569 ft | 374 kts | 29° |
| 2026-05-09 14:06 | 52.74351 | 104.98113 | 19099 ft | 376 kts | 28° |
| 2026-05-09 14:06 | 52.76556 | 105.00454 | 19634 ft | 379 kts | 28° |
| 2026-05-09 14:06 | 52.78778 | 105.02818 | 19868 ft | 380 kts | 28° |
| 2026-05-09 14:06 | 52.81000 | 105.05191 | 19925 ft | 380 kts | 28° |
| 2026-05-09 14:07 | 52.83218 | 105.07562 | 19927 ft | 380 kts | 28° |
| 2026-05-09 14:07 | 52.85438 | 105.09940 | 19922 ft | 380 kts | 28° |
| 2026-05-09 14:07 | 52.87654 | 105.12318 | 19923 ft | 380 kts | 28° |
| 2026-05-09 14:07 | 52.89872 | 105.14700 | 19936 ft | 380 kts | 28° |
| 2026-05-09 14:08 | 52.91972 | 105.17389 | 19927 ft | 386 kts | 40° |
| 2026-05-09 14:08 | 52.93647 | 105.20865 | 19926 ft | 393 kts | 54° |
| 2026-05-09 14:08 | 52.94776 | 105.25030 | 19927 ft | 401 kts | 70° |
| 2026-05-09 14:08 | 52.95239 | 105.29610 | 19925 ft | 407 kts | 85° |
| 2026-05-09 14:09 | 52.95022 | 105.34315 | 19929 ft | 411 kts | 95° |
| 2026-05-09 14:09 | 52.94629 | 105.39013 | 19928 ft | 412 kts | 95° |
| 2026-05-09 14:09 | 52.94237 | 105.43717 | 19932 ft | 412 kts | 95° |
| 2026-05-09 14:09 | 52.93847 | 105.48423 | 19932 ft | 412 kts | 95° |
| 2026-05-09 14:10 | 52.93058 | 105.57836 | 19936 ft | 412 kts | 95° |
| 2026-05-09 14:10 | 52.92654 | 105.62544 | 20065 ft | 415 kts | 95° |
| 2026-05-09 14:10 | 52.92247 | 105.67292 | 20640 ft | 417 kts | 95° |
| 2026-05-09 14:11 | 52.91837 | 105.72053 | 21161 ft | 420 kts | 95° |
| 2026-05-09 14:11 | 52.91429 | 105.76803 | 21666 ft | 423 kts | 95° |
| 2026-05-09 14:11 | 52.91013 | 105.81652 | 22179 ft | 426 kts | 95° |
| 2026-05-09 14:11 | 52.90586 | 105.86595 | 22693 ft | 430 kts | 95° |
| 2026-05-09 14:12 | 52.90157 | 105.91509 | 23195 ft | 432 kts | 95° |
| 2026-05-09 14:12 | 52.89718 | 105.96453 | 23645 ft | 435 kts | 95° |
| 2026-05-09 14:12 | 52.89278 | 106.01424 | 24035 ft | 438 kts | 95° |
| 2026-05-09 14:12 | 52.88834 | 106.06436 | 24432 ft | 440 kts | 95° |
| 2026-05-09 14:13 | 52.88385 | 106.11462 | 24819 ft | 442 kts | 95° |
| 2026-05-09 14:14 | 52.85115 | 106.47276 | 27313 ft | 456 kts | 95° |
| 2026-05-09 14:15 | 52.84636 | 106.52478 | 27666 ft | 458 kts | 95° |
| 2026-05-09 14:15 | 52.84152 | 106.57699 | 28011 ft | 460 kts | 95° |
| 2026-05-09 14:15 | 52.83667 | 106.62944 | 28324 ft | 462 kts | 95° |
| 2026-05-09 14:15 | 52.83180 | 106.68140 | 28640 ft | 464 kts | 95° |
| 2026-05-09 14:16 | 52.82678 | 106.73422 | 28938 ft | 466 kts | 95° |
| 2026-05-09 14:16 | 52.82168 | 106.78730 | 29243 ft | 468 kts | 95° |
| 2026-05-09 14:16 | 52.81651 | 106.84055 | 29532 ft | 470 kts | 95° |
| 2026-05-09 14:16 | 52.81135 | 106.89399 | 29841 ft | 472 kts | 95° |
| 2026-05-09 14:17 | 52.80620 | 106.94761 | 30105 ft | 473 kts | 95° |
| 2026-05-09 14:17 | 52.80105 | 107.00133 | 30337 ft | 475 kts | 95° |
| 2026-05-09 14:17 | 52.79583 | 107.05526 | 30562 ft | 476 kts | 95° |
| 2026-05-09 14:17 | 52.79052 | 107.10935 | 30781 ft | 477 kts | 95° |
| 2026-05-09 14:18 | 52.78516 | 107.16352 | 30991 ft | 479 kts | 95° |
| 2026-05-09 14:18 | 52.77978 | 107.21771 | 31270 ft | 478 kts | 95° |
| 2026-05-09 14:18 | 52.77437 | 107.27187 | 31567 ft | 477 kts | 95° |
| 2026-05-09 14:18 | 52.76899 | 107.32592 | 31869 ft | 476 kts | 95° |
| 2026-05-09 14:19 | 52.76357 | 107.37979 | 32181 ft | 475 kts | 95° |
| 2026-05-09 14:19 | 52.75810 | 107.43347 | 32519 ft | 473 kts | 95° |
| 2026-05-09 14:19 | 52.75262 | 107.48699 | 32826 ft | 472 kts | 95° |
| 2026-05-09 14:19 | 52.74716 | 107.54038 | 33122 ft | 472 kts | 95° |
| 2026-05-09 14:20 | 52.74173 | 107.59372 | 33406 ft | 471 kts | 95° |
| 2026-05-09 14:20 | 52.73633 | 107.64692 | 33695 ft | 470 kts | 95° |
| 2026-05-09 14:20 | 52.73089 | 107.70011 | 33978 ft | 470 kts | 95° |
| 2026-05-09 14:21 | 52.71990 | 107.80624 | 34427 ft | 469 kts | 95° |
| 2026-05-09 14:21 | 52.71437 | 107.85931 | 34658 ft | 470 kts | 95° |
| 2026-05-09 14:21 | 52.70880 | 107.91233 | 34880 ft | 469 kts | 96° |
| 2026-05-09 14:21 | 52.70316 | 107.96522 | 34930 ft | 467 kts | 96° |
| 2026-05-09 14:22 | 52.69187 | 108.07017 | 34941 ft | 464 kts | 96° |
| 2026-05-09 14:22 | 52.68063 | 108.17484 | 34935 ft | 464 kts | 96° |
| 2026-05-09 14:23 | 52.66952 | 108.27956 | 34934 ft | 464 kts | 96° |
| 2026-05-09 14:23 | 52.65876 | 108.38421 | 34947 ft | 463 kts | 95° |
| 2026-05-09 14:24 | 52.64816 | 108.48946 | 34944 ft | 463 kts | 95° |
| 2026-05-09 14:24 | 52.63751 | 108.59397 | 34945 ft | 463 kts | 95° |
| 2026-05-09 14:25 | 52.62664 | 108.69843 | 34949 ft | 463 kts | 96° |
| 2026-05-09 14:25 | 52.61560 | 108.80284 | 34949 ft | 463 kts | 96° |
| 2026-05-09 14:26 | 52.60442 | 108.90732 | 34959 ft | 463 kts | 96° |
| 2026-05-09 14:26 | 52.59322 | 109.01161 | 34954 ft | 463 kts | 96° |
| 2026-05-09 14:27 | 52.58201 | 109.11580 | 34955 ft | 463 kts | 96° |
| 2026-05-09 14:27 | 52.57064 | 109.22008 | 34947 ft | 463 kts | 96° |
| 2026-05-09 14:28 | 52.55915 | 109.32424 | 34957 ft | 463 kts | 96° |
| 2026-05-09 14:28 | 52.54757 | 109.42835 | 34954 ft | 463 kts | 96° |
| 2026-05-09 14:29 | 52.53598 | 109.53237 | 34951 ft | 463 kts | 96° |
| 2026-05-09 14:29 | 52.52438 | 109.63614 | 34948 ft | 463 kts | 96° |
| 2026-05-09 14:30 | 52.51260 | 109.74009 | 34935 ft | 463 kts | 96° |
| 2026-05-09 14:30 | 52.50060 | 109.84386 | 34936 ft | 463 kts | 97° |
| 2026-05-09 14:31 | 52.48809 | 109.94749 | 34924 ft | 463 kts | 98° |
| 2026-05-09 14:31 | 52.47411 | 110.05077 | 34923 ft | 464 kts | 99° |
| 2026-05-09 14:32 | 52.45972 | 110.15393 | 34926 ft | 464 kts | 99° |
| 2026-05-09 14:32 | 52.44545 | 110.25707 | 34925 ft | 464 kts | 98° |
| 2026-05-09 14:33 | 52.43139 | 110.36015 | 34822 ft | 463 kts | 99° |
| 2026-05-09 14:33 | 52.42434 | 110.41151 | 34577 ft | 461 kts | 99° |
| 2026-05-09 14:33 | 52.41965 | 110.44548 | 34415 ft | 461 kts | 99° |
| 2026-05-09 14:34 | 52.40356 | 110.56163 | 33870 ft | 460 kts | 98° |
| 2026-05-09 14:34 | 52.39644 | 110.61258 | 33584 ft | 459 kts | 99° |
| 2026-05-09 14:34 | 52.38928 | 110.66341 | 33305 ft | 457 kts | 99° |
| 2026-05-09 14:35 | 52.38210 | 110.71395 | 33024 ft | 455 kts | 99° |
| 2026-05-09 14:35 | 52.37493 | 110.76431 | 32750 ft | 453 kts | 98° |
| 2026-05-09 14:35 | 52.36811 | 110.81443 | 32494 ft | 450 kts | 98° |
| 2026-05-09 14:35 | 52.36173 | 110.86443 | 32228 ft | 447 kts | 97° |
| 2026-05-09 14:36 | 52.35562 | 110.91410 | 31978 ft | 445 kts | 97° |
| 2026-05-09 14:36 | 52.34958 | 110.96368 | 31706 ft | 443 kts | 97° |
| 2026-05-09 14:36 | 52.34353 | 111.01294 | 31443 ft | 441 kts | 97° |
| 2026-05-09 14:36 | 52.33740 | 111.06200 | 31185 ft | 440 kts | 97° |
| 2026-05-09 14:37 | 52.33121 | 111.11087 | 30929 ft | 438 kts | 97° |
| 2026-05-09 14:37 | 52.32499 | 111.15947 | 30679 ft | 436 kts | 97° |
| 2026-05-09 14:37 | 52.31874 | 111.20789 | 30429 ft | 435 kts | 97° |
| 2026-05-09 14:37 | 52.31247 | 111.25613 | 30207 ft | 433 kts | 98° |
| 2026-05-09 14:38 | 52.30621 | 111.30417 | 29958 ft | 431 kts | 98° |
| 2026-05-09 14:38 | 52.29998 | 111.35197 | 29671 ft | 429 kts | 98° |
| 2026-05-09 14:38 | 52.29378 | 111.39957 | 29383 ft | 428 kts | 98° |
| 2026-05-09 14:38 | 52.28758 | 111.44693 | 29098 ft | 426 kts | 98° |
| 2026-05-09 14:39 | 52.28136 | 111.49419 | 28813 ft | 424 kts | 98° |
| 2026-05-09 14:39 | 52.27512 | 111.54118 | 28535 ft | 423 kts | 98° |
| 2026-05-09 14:39 | 52.26889 | 111.58795 | 28264 ft | 421 kts | 98° |
| 2026-05-09 14:39 | 52.26272 | 111.63460 | 27982 ft | 419 kts | 98° |
| 2026-05-09 14:40 | 52.25665 | 111.68099 | 27714 ft | 418 kts | 98° |
| 2026-05-09 14:40 | 52.25060 | 111.72729 | 27446 ft | 416 kts | 98° |
| 2026-05-09 14:40 | 52.24457 | 111.77317 | 27196 ft | 414 kts | 99° |
| 2026-05-09 14:40 | 52.23850 | 111.81897 | 26933 ft | 412 kts | 99° |
| 2026-05-09 14:41 | 52.23447 | 111.84917 | 26759 ft | 411 kts | 99° |